sensor_id;sensor_type;location;lat;lon;timestamp;temperature;humidity
22469;DHT22;11401;50.792;4.352;2022-08-03T00:01:24;25.20;58.90
22469;DHT22;11401;50.792;4.352;2022-08-03T00:03:51;25.20;58.90
22469;DHT22;11401;50.792;4.352;2022-08-03T00:06:18;25.20;58.90
22469;DHT22;11401;50.792;4.352;2022-08-03T00:08:45;25.20;58.90
22469;DHT22;11401;50.792;4.352;2022-08-03T00:11:12;25.20;58.90
22469;DHT22;11401;50.792;4.352;2022-08-03T00:13:39;25.20;58.90
22469;DHT22;11401;50.792;4.352;2022-08-03T00:16:05;25.20;58.90
22469;DHT22;11401;50.792;4.352;2022-08-03T00:18:33;25.10;58.90
22469;DHT22;11401;50.792;4.352;2022-08-03T00:21:00;25.10;58.90
22469;DHT22;11401;50.792;4.352;2022-08-03T00:23:27;25.10;58.90
22469;DHT22;11401;50.792;4.352;2022-08-03T00:26:14;25.10;58.90
22469;DHT22;11401;50.792;4.352;2022-08-03T00:28:41;25.10;59.00
22469;DHT22;11401;50.792;4.352;2022-08-03T00:31:08;25.10;59.00
22469;DHT22;11401;50.792;4.352;2022-08-03T00:33:39;25.10;59.00
22469;DHT22;11401;50.792;4.352;2022-08-03T00:36:26;25.10;59.00
22469;DHT22;11401;50.792;4.352;2022-08-03T00:38:54;25.00;59.00
22469;DHT22;11401;50.792;4.352;2022-08-03T00:41:21;25.00;59.10
22469;DHT22;11401;50.792;4.352;2022-08-03T00:43:48;25.00;59.00
22469;DHT22;11401;50.792;4.352;2022-08-03T00:46:15;25.00;59.00
22469;DHT22;11401;50.792;4.352;2022-08-03T00:48:51;25.00;59.10
22469;DHT22;11401;50.792;4.352;2022-08-03T00:51:19;25.00;59.70
22469;DHT22;11401;50.792;4.352;2022-08-03T00:53:47;25.00;59.10
22469;DHT22;11401;50.792;4.352;2022-08-03T00:56:14;25.00;59.10
22469;DHT22;11401;50.792;4.352;2022-08-03T00:58:43;24.90;59.10
22469;DHT22;11401;50.792;4.352;2022-08-03T01:01:10;24.90;59.20
22469;DHT22;11401;50.792;4.352;2022-08-03T01:03:38;24.90;59.20
22469;DHT22;11401;50.792;4.352;2022-08-03T01:06:19;24.90;59.20
22469;DHT22;11401;50.792;4.352;2022-08-03T01:08:57;24.90;59.20
22469;DHT22;11401;50.792;4.352;2022-08-03T01:14:12;24.80;59.30
22469;DHT22;11401;50.792;4.352;2022-08-03T01:17:06;24.80;59.30
22469;DHT22;11401;50.792;4.352;2022-08-03T01:28:28;24.80;59.20
22469;DHT22;11401;50.792;4.352;2022-08-03T01:31:04;24.70;59.50
22469;DHT22;11401;50.792;4.352;2022-08-03T01:33:50;24.70;59.40
22469;DHT22;11401;50.792;4.352;2022-08-03T01:36:25;24.70;59.10
22469;DHT22;11401;50.792;4.352;2022-08-03T01:39:00;24.70;59.40
22469;DHT22;11401;50.792;4.352;2022-08-03T01:41:34;24.70;59.50
22469;DHT22;11401;50.792;4.352;2022-08-03T01:44:03;24.60;59.40
22469;DHT22;11401;50.792;4.352;2022-08-03T01:46:52;24.60;59.50
22469;DHT22;11401;50.792;4.352;2022-08-03T01:49:19;24.60;59.60
22469;DHT22;11401;50.792;4.352;2022-08-03T01:51:47;24.60;59.60
22469;DHT22;11401;50.792;4.352;2022-08-03T01:54:35;24.60;59.50
22469;DHT22;11401;50.792;4.352;2022-08-03T01:57:04;24.60;59.50
22469;DHT22;11401;50.792;4.352;2022-08-03T01:59:33;24.60;59.60
22469;DHT22;11401;50.792;4.352;2022-08-03T02:02:03;24.70;59.50
22469;DHT22;11401;50.792;4.352;2022-08-03T02:04:52;24.70;59.40
22469;DHT22;11401;50.792;4.352;2022-08-03T02:07:20;24.70;59.30
22469;DHT22;11401;50.792;4.352;2022-08-03T02:09:50;24.70;59.30
22469;DHT22;11401;50.792;4.352;2022-08-03T02:12:18;24.70;59.20
22469;DHT22;11401;50.792;4.352;2022-08-03T02:14:46;24.70;59.20
22469;DHT22;11401;50.792;4.352;2022-08-03T02:17:15;24.70;59.10
22469;DHT22;11401;50.792;4.352;2022-08-03T02:19:42;24.70;59.20
22469;DHT22;11401;50.792;4.352;2022-08-03T02:22:11;24.70;59.10
22469;DHT22;11401;50.792;4.352;2022-08-03T02:24:40;24.70;59.00
22469;DHT22;11401;50.792;4.352;2022-08-03T02:27:23;24.70;59.10
22469;DHT22;11401;50.792;4.352;2022-08-03T02:29:57;24.80;59.00
22469;DHT22;11401;50.792;4.352;2022-08-03T02:32:31;24.80;59.10
22469;DHT22;11401;50.792;4.352;2022-08-03T02:35:01;24.70;59.10
22469;DHT22;11401;50.792;4.352;2022-08-03T02:37:34;24.70;59.10
22469;DHT22;11401;50.792;4.352;2022-08-03T02:40:03;24.70;59.00
22469;DHT22;11401;50.792;4.352;2022-08-03T02:42:32;24.70;59.10
22469;DHT22;11401;50.792;4.352;2022-08-03T02:45:02;24.70;59.00
22469;DHT22;11401;50.792;4.352;2022-08-03T02:47:31;24.70;59.60
22469;DHT22;11401;50.792;4.352;2022-08-03T02:50:21;24.70;59.00
22469;DHT22;11401;50.792;4.352;2022-08-03T02:52:49;24.60;59.00
22469;DHT22;11401;50.792;4.352;2022-08-03T02:55:18;24.70;59.70
22469;DHT22;11401;50.792;4.352;2022-08-03T02:57:46;24.70;59.10
22469;DHT22;11401;50.792;4.352;2022-08-03T03:00:14;24.60;59.00
22469;DHT22;11401;50.792;4.352;2022-08-03T03:02:58;24.60;58.90
22469;DHT22;11401;50.792;4.352;2022-08-03T03:05:27;24.60;58.90
22469;DHT22;11401;50.792;4.352;2022-08-03T03:08:17;24.60;58.90
22469;DHT22;11401;50.792;4.352;2022-08-03T03:10:53;24.60;58.90
22469;DHT22;11401;50.792;4.352;2022-08-03T03:13:21;24.50;58.80
22469;DHT22;11401;50.792;4.352;2022-08-03T03:15:48;24.50;58.90
22469;DHT22;11401;50.792;4.352;2022-08-03T03:18:16;24.50;58.80
22469;DHT22;11401;50.792;4.352;2022-08-03T03:20:50;24.50;58.80
22469;DHT22;11401;50.792;4.352;2022-08-03T03:23:18;24.50;58.90
22469;DHT22;11401;50.792;4.352;2022-08-03T03:25:46;24.50;58.90
22469;DHT22;11401;50.792;4.352;2022-08-03T03:28:14;24.50;58.90
22469;DHT22;11401;50.792;4.352;2022-08-03T03:30:42;24.40;58.80
22469;DHT22;11401;50.792;4.352;2022-08-03T03:33:09;24.40;58.80
22469;DHT22;11401;50.792;4.352;2022-08-03T03:35:36;24.40;58.80
22469;DHT22;11401;50.792;4.352;2022-08-03T03:38:05;24.40;59.50
22469;DHT22;11401;50.792;4.352;2022-08-03T03:40:34;24.40;59.10
22469;DHT22;11401;50.792;4.352;2022-08-03T03:43:02;24.40;59.00
22469;DHT22;11401;50.792;4.352;2022-08-03T03:45:33;24.40;59.00
22469;DHT22;11401;50.792;4.352;2022-08-03T03:48:03;24.40;59.00
22469;DHT22;11401;50.792;4.352;2022-08-03T03:50:31;24.40;59.00
22469;DHT22;11401;50.792;4.352;2022-08-03T03:52:58;24.40;59.00
22469;DHT22;11401;50.792;4.352;2022-08-03T03:55:26;24.40;59.00
22469;DHT22;11401;50.792;4.352;2022-08-03T03:57:53;24.40;59.00
22469;DHT22;11401;50.792;4.352;2022-08-03T04:00:20;24.30;58.90
22469;DHT22;11401;50.792;4.352;2022-08-03T04:02:47;24.30;59.00
22469;DHT22;11401;50.792;4.352;2022-08-03T04:05:14;24.40;59.10
22469;DHT22;11401;50.792;4.352;2022-08-03T04:08:04;24.40;59.10
22469;DHT22;11401;50.792;4.352;2022-08-03T04:11:11;24.30;59.00
22469;DHT22;11401;50.792;4.352;2022-08-03T04:13:50;24.30;59.00
22469;DHT22;11401;50.792;4.352;2022-08-03T04:16:21;24.30;59.10
22469;DHT22;11401;50.792;4.352;2022-08-03T04:18:59;24.30;59.20
22469;DHT22;11401;50.792;4.352;2022-08-03T04:21:27;24.30;59.70
22469;DHT22;11401;50.792;4.352;2022-08-03T04:23:59;24.30;59.20
22469;DHT22;11401;50.792;4.352;2022-08-03T04:26:30;24.30;59.20
22469;DHT22;11401;50.792;4.352;2022-08-03T04:28:57;24.30;59.80
22469;DHT22;11401;50.792;4.352;2022-08-03T04:31:26;24.20;59.10
22469;DHT22;11401;50.792;4.352;2022-08-03T04:33:54;24.20;59.10
22469;DHT22;11401;50.792;4.352;2022-08-03T04:36:24;24.20;59.10
22469;DHT22;11401;50.792;4.352;2022-08-03T04:41:31;24.30;58.90
22469;DHT22;11401;50.792;4.352;2022-08-03T04:44:22;24.20;59.10
22469;DHT22;11401;50.792;4.352;2022-08-03T04:46:55;24.20;59.10
22469;DHT22;11401;50.792;4.352;2022-08-03T04:49:23;24.20;59.00
22469;DHT22;11401;50.792;4.352;2022-08-03T04:51:51;24.20;59.10
22469;DHT22;11401;50.792;4.352;2022-08-03T04:54:18;24.20;59.10
22469;DHT22;11401;50.792;4.352;2022-08-03T04:56:45;24.20;59.10
22469;DHT22;11401;50.792;4.352;2022-08-03T04:59:12;24.20;59.20
22469;DHT22;11401;50.792;4.352;2022-08-03T05:01:40;24.20;59.10
22469;DHT22;11401;50.792;4.352;2022-08-03T05:04:08;24.20;59.20
22469;DHT22;11401;50.792;4.352;2022-08-03T05:06:35;24.20;59.20
22469;DHT22;11401;50.792;4.352;2022-08-03T05:09:07;24.20;59.10
22469;DHT22;11401;50.792;4.352;2022-08-03T05:11:34;24.20;59.10
22469;DHT22;11401;50.792;4.352;2022-08-03T05:14:00;24.20;59.20
22469;DHT22;11401;50.792;4.352;2022-08-03T05:16:27;24.20;59.20
22469;DHT22;11401;50.792;4.352;2022-08-03T05:18:54;24.20;59.20
22469;DHT22;11401;50.792;4.352;2022-08-03T05:21:21;24.20;59.20
22469;DHT22;11401;50.792;4.352;2022-08-03T05:23:48;24.30;59.30
22469;DHT22;11401;50.792;4.352;2022-08-03T05:26:15;24.30;59.30
22469;DHT22;11401;50.792;4.352;2022-08-03T05:28:42;24.30;59.30
22469;DHT22;11401;50.792;4.352;2022-08-03T05:31:17;24.30;59.30
22469;DHT22;11401;50.792;4.352;2022-08-03T05:33:44;24.40;59.40
22469;DHT22;11401;50.792;4.352;2022-08-03T05:36:11;24.30;59.40
22469;DHT22;11401;50.792;4.352;2022-08-03T05:38:38;24.40;59.40
22469;DHT22;11401;50.792;4.352;2022-08-03T05:41:05;24.40;59.40
22469;DHT22;11401;50.792;4.352;2022-08-03T05:43:50;24.40;59.50
22469;DHT22;11401;50.792;4.352;2022-08-03T05:46:20;24.40;59.50
22469;DHT22;11401;50.792;4.352;2022-08-03T05:48:47;24.40;59.50
22469;DHT22;11401;50.792;4.352;2022-08-03T05:51:14;24.50;59.60
22469;DHT22;11401;50.792;4.352;2022-08-03T05:53:42;24.50;59.60
22469;DHT22;11401;50.792;4.352;2022-08-03T05:56:10;24.50;59.60
22469;DHT22;11401;50.792;4.352;2022-08-03T05:58:42;24.50;59.70
22469;DHT22;11401;50.792;4.352;2022-08-03T06:01:09;24.60;59.70
22469;DHT22;11401;50.792;4.352;2022-08-03T06:03:37;24.60;59.70
22469;DHT22;11401;50.792;4.352;2022-08-03T06:06:04;24.60;59.70
22469;DHT22;11401;50.792;4.352;2022-08-03T06:08:30;24.60;59.70
22469;DHT22;11401;50.792;4.352;2022-08-03T06:10:57;24.60;60.40
22469;DHT22;11401;50.792;4.352;2022-08-03T06:13:24;24.70;59.80
22469;DHT22;11401;50.792;4.352;2022-08-03T06:15:51;24.70;59.70
22469;DHT22;11401;50.792;4.352;2022-08-03T06:18:18;24.70;59.60
22469;DHT22;11401;50.792;4.352;2022-08-03T06:20:45;24.70;59.60
22469;DHT22;11401;50.792;4.352;2022-08-03T06:23:15;24.70;59.60
22469;DHT22;11401;50.792;4.352;2022-08-03T06:25:44;24.80;59.70
22469;DHT22;11401;50.792;4.352;2022-08-03T06:28:11;24.80;60.40
22469;DHT22;11401;50.792;4.352;2022-08-03T06:31:00;24.80;59.60
22469;DHT22;11401;50.792;4.352;2022-08-03T06:33:27;24.90;59.60
22469;DHT22;11401;50.792;4.352;2022-08-03T06:36:14;24.90;59.60
22469;DHT22;11401;50.792;4.352;2022-08-03T06:38:41;24.90;59.60
22469;DHT22;11401;50.792;4.352;2022-08-03T06:41:08;24.90;59.50
22469;DHT22;11401;50.792;4.352;2022-08-03T06:43:35;25.00;59.40
22469;DHT22;11401;50.792;4.352;2022-08-03T06:46:23;25.00;59.50
22469;DHT22;11401;50.792;4.352;2022-08-03T06:48:51;25.10;59.40
22469;DHT22;11401;50.792;4.352;2022-08-03T06:51:18;25.10;59.30
22469;DHT22;11401;50.792;4.352;2022-08-03T06:53:45;25.10;59.20
22469;DHT22;11401;50.792;4.352;2022-08-03T06:56:12;25.10;59.20
22469;DHT22;11401;50.792;4.352;2022-08-03T06:58:39;25.20;59.10
22469;DHT22;11401;50.792;4.352;2022-08-03T07:01:06;25.20;59.10
22469;DHT22;11401;50.792;4.352;2022-08-03T07:03:33;25.20;59.20
22469;DHT22;11401;50.792;4.352;2022-08-03T07:06:01;25.20;59.20
22469;DHT22;11401;50.792;4.352;2022-08-03T07:08:29;25.20;59.60
22469;DHT22;11401;50.792;4.352;2022-08-03T07:11:00;25.20;59.00
22469;DHT22;11401;50.792;4.352;2022-08-03T07:13:27;25.20;59.10
22469;DHT22;11401;50.792;4.352;2022-08-03T07:15:54;25.30;58.90
22469;DHT22;11401;50.792;4.352;2022-08-03T07:18:22;25.30;58.80
22469;DHT22;11401;50.792;4.352;2022-08-03T07:20:56;25.30;58.80
22469;DHT22;11401;50.792;4.352;2022-08-03T07:23:23;25.30;58.80
22469;DHT22;11401;50.792;4.352;2022-08-03T07:25:51;25.40;58.90
22469;DHT22;11401;50.792;4.352;2022-08-03T07:28:18;25.40;58.90
22469;DHT22;11401;50.792;4.352;2022-08-03T07:30:46;25.40;58.90
22469;DHT22;11401;50.792;4.352;2022-08-03T07:33:13;25.40;58.90
22469;DHT22;11401;50.792;4.352;2022-08-03T07:35:40;25.50;58.90
22469;DHT22;11401;50.792;4.352;2022-08-03T07:38:08;25.50;58.90
22469;DHT22;11401;50.792;4.352;2022-08-03T07:40:34;25.50;58.80
22469;DHT22;11401;50.792;4.352;2022-08-03T07:43:01;25.50;58.80
22469;DHT22;11401;50.792;4.352;2022-08-03T07:45:32;25.50;58.70
22469;DHT22;11401;50.792;4.352;2022-08-03T07:47:59;25.50;58.70
22469;DHT22;11401;50.792;4.352;2022-08-03T07:50:26;25.50;58.70
22469;DHT22;11401;50.792;4.352;2022-08-03T07:52:53;25.60;58.70
22469;DHT22;11401;50.792;4.352;2022-08-03T07:55:23;25.50;58.60
22469;DHT22;11401;50.792;4.352;2022-08-03T07:58:09;25.60;58.50
22469;DHT22;11401;50.792;4.352;2022-08-03T08:00:38;25.60;58.40
22469;DHT22;11401;50.792;4.352;2022-08-03T08:03:05;25.60;58.40
22469;DHT22;11401;50.792;4.352;2022-08-03T08:05:32;25.60;58.30
22469;DHT22;11401;50.792;4.352;2022-08-03T08:08:00;25.60;58.30
22469;DHT22;11401;50.792;4.352;2022-08-03T08:10:28;25.60;58.30
22469;DHT22;11401;50.792;4.352;2022-08-03T08:12:58;25.70;58.20
22469;DHT22;11401;50.792;4.352;2022-08-03T08:15:25;25.70;58.10
22469;DHT22;11401;50.792;4.352;2022-08-03T08:17:55;25.70;58.10
22469;DHT22;11401;50.792;4.352;2022-08-03T08:20:24;25.70;58.10
22469;DHT22;11401;50.792;4.352;2022-08-03T08:23:02;25.70;58.20
22469;DHT22;11401;50.792;4.352;2022-08-03T08:25:50;25.70;58.20
22469;DHT22;11401;50.792;4.352;2022-08-03T08:28:21;25.80;58.20
22469;DHT22;11401;50.792;4.352;2022-08-03T08:30:58;25.80;58.20
22469;DHT22;11401;50.792;4.352;2022-08-03T08:33:25;25.80;58.20
22469;DHT22;11401;50.792;4.352;2022-08-03T08:36:08;25.80;58.20
22469;DHT22;11401;50.792;4.352;2022-08-03T08:38:41;25.80;58.30
22469;DHT22;11401;50.792;4.352;2022-08-03T08:41:09;25.80;58.30
22469;DHT22;11401;50.792;4.352;2022-08-03T08:43:37;25.80;58.40
22469;DHT22;11401;50.792;4.352;2022-08-03T08:46:04;25.80;58.50
22469;DHT22;11401;50.792;4.352;2022-08-03T08:48:36;25.80;58.40
22469;DHT22;11401;50.792;4.352;2022-08-03T08:51:04;25.80;58.40
22469;DHT22;11401;50.792;4.352;2022-08-03T08:53:35;25.80;58.40
22469;DHT22;11401;50.792;4.352;2022-08-03T08:56:03;25.80;58.40
22469;DHT22;11401;50.792;4.352;2022-08-03T08:58:36;25.80;58.40
22469;DHT22;11401;50.792;4.352;2022-08-03T09:01:04;25.90;58.30
22469;DHT22;11401;50.792;4.352;2022-08-03T09:03:34;25.90;58.30
22469;DHT22;11401;50.792;4.352;2022-08-03T09:06:02;25.90;58.30
22469;DHT22;11401;50.792;4.352;2022-08-03T09:08:30;25.90;58.30
22469;DHT22;11401;50.792;4.352;2022-08-03T09:10:59;25.90;58.30
22469;DHT22;11401;50.792;4.352;2022-08-03T09:13:27;25.90;58.30
22469;DHT22;11401;50.792;4.352;2022-08-03T09:16:24;25.90;58.40
22469;DHT22;11401;50.792;4.352;2022-08-03T09:18:52;25.90;58.30
22469;DHT22;11401;50.792;4.352;2022-08-03T09:21:27;25.90;58.50
22469;DHT22;11401;50.792;4.352;2022-08-03T09:24:00;25.90;58.40
22469;DHT22;11401;50.792;4.352;2022-08-03T09:26:35;25.90;58.40
22469;DHT22;11401;50.792;4.352;2022-08-03T09:31:44;26.00;58.30
22469;DHT22;11401;50.792;4.352;2022-08-03T09:34:15;26.00;58.70
22469;DHT22;11401;50.792;4.352;2022-08-03T09:36:49;26.00;58.20
22469;DHT22;11401;50.792;4.352;2022-08-03T09:39:21;26.00;58.10
22469;DHT22;11401;50.792;4.352;2022-08-03T09:42:16;25.90;58.00
22469;DHT22;11401;50.792;4.352;2022-08-03T09:44:48;26.00;58.00
22469;DHT22;11401;50.792;4.352;2022-08-03T09:47:27;26.00;58.10
22469;DHT22;11401;50.792;4.352;2022-08-03T09:50:00;26.00;57.90
22469;DHT22;11401;50.792;4.352;2022-08-03T09:52:32;26.00;57.70
22469;DHT22;11401;50.792;4.352;2022-08-03T09:55:16;26.00;57.90
22469;DHT22;11401;50.792;4.352;2022-08-03T09:58:06;26.00;57.90
22469;DHT22;11401;50.792;4.352;2022-08-03T10:03:19;26.00;57.80
22469;DHT22;11401;50.792;4.352;2022-08-03T10:05:46;26.00;58.00
22469;DHT22;11401;50.792;4.352;2022-08-03T10:08:15;26.00;57.80
22469;DHT22;11401;50.792;4.352;2022-08-03T10:10:43;26.00;57.80
22469;DHT22;11401;50.792;4.352;2022-08-03T10:13:15;26.00;57.90
22469;DHT22;11401;50.792;4.352;2022-08-03T10:15:42;26.00;57.80
22469;DHT22;11401;50.792;4.352;2022-08-03T10:18:29;26.00;57.80
22469;DHT22;11401;50.792;4.352;2022-08-03T10:21:02;26.00;57.90
22469;DHT22;11401;50.792;4.352;2022-08-03T10:23:33;26.10;57.60
22469;DHT22;11401;50.792;4.352;2022-08-03T10:26:06;26.10;57.70
22469;DHT22;11401;50.792;4.352;2022-08-03T10:28:41;26.00;57.60
22469;DHT22;11401;50.792;4.352;2022-08-03T10:31:12;26.00;57.70
22469;DHT22;11401;50.792;4.352;2022-08-03T10:33:45;26.00;57.80
22469;DHT22;11401;50.792;4.352;2022-08-03T10:36:19;26.00;57.80
22469;DHT22;11401;50.792;4.352;2022-08-03T10:38:50;26.00;57.80
22469;DHT22;11401;50.792;4.352;2022-08-03T10:41:23;26.00;57.80
22469;DHT22;11401;50.792;4.352;2022-08-03T10:43:58;26.10;57.80
22469;DHT22;11401;50.792;4.352;2022-08-03T10:46:28;26.10;57.80
22469;DHT22;11401;50.792;4.352;2022-08-03T10:48:56;26.10;57.70
22469;DHT22;11401;50.792;4.352;2022-08-03T10:51:24;26.10;57.70
22469;DHT22;11401;50.792;4.352;2022-08-03T10:53:56;26.10;57.80
22469;DHT22;11401;50.792;4.352;2022-08-03T11:02:13;26.00;58.00
22469;DHT22;11401;50.792;4.352;2022-08-03T11:04:41;26.00;58.00
22469;DHT22;11401;50.792;4.352;2022-08-03T11:07:18;26.00;58.10
22469;DHT22;11401;50.792;4.352;2022-08-03T11:09:50;26.00;58.00
22469;DHT22;11401;50.792;4.352;2022-08-03T11:12:26;26.00;58.70
22469;DHT22;11401;50.792;4.352;2022-08-03T11:15:05;26.00;57.90
22469;DHT22;11401;50.792;4.352;2022-08-03T11:17:34;26.00;57.90
22469;DHT22;11401;50.792;4.352;2022-08-03T11:20:47;26.00;58.00
22469;DHT22;11401;50.792;4.352;2022-08-03T11:23:15;26.10;57.80
22469;DHT22;11401;50.792;4.352;2022-08-03T11:26:14;26.00;57.90
22469;DHT22;11401;50.792;4.352;2022-08-03T11:28:44;26.10;57.90
22469;DHT22;11401;50.792;4.352;2022-08-03T11:34:12;26.10;57.80
22469;DHT22;11401;50.792;4.352;2022-08-03T11:37:17;26.00;57.90
22469;DHT22;11401;50.792;4.352;2022-08-03T11:39:46;26.10;57.60
22469;DHT22;11401;50.792;4.352;2022-08-03T11:44:57;26.20;57.50
22469;DHT22;11401;50.792;4.352;2022-08-03T11:47:27;26.20;57.50
22469;DHT22;11401;50.792;4.352;2022-08-03T11:49:56;26.20;57.70
22469;DHT22;11401;50.792;4.352;2022-08-03T11:52:25;26.10;57.50
22469;DHT22;11401;50.792;4.352;2022-08-03T11:54:54;26.10;57.30
22469;DHT22;11401;50.792;4.352;2022-08-03T11:57:30;26.10;57.60
22469;DHT22;11401;50.792;4.352;2022-08-03T12:02:55;26.20;57.50
22469;DHT22;11401;50.792;4.352;2022-08-03T12:05:52;26.10;57.50
22469;DHT22;11401;50.792;4.352;2022-08-03T12:10:55;26.20;57.50
22469;DHT22;11401;50.792;4.352;2022-08-03T12:13:23;26.10;57.60
22469;DHT22;11401;50.792;4.352;2022-08-03T12:16:21;26.10;57.70
22469;DHT22;11401;50.792;4.352;2022-08-03T12:18:59;26.10;57.70
22469;DHT22;11401;50.792;4.352;2022-08-03T12:21:27;26.10;57.70
22469;DHT22;11401;50.792;4.352;2022-08-03T12:23:59;26.10;57.80
22469;DHT22;11401;50.792;4.352;2022-08-03T12:26:28;26.10;57.70
22469;DHT22;11401;50.792;4.352;2022-08-03T12:28:55;26.10;57.90
22469;DHT22;11401;50.792;4.352;2022-08-03T12:31:23;26.00;57.80
22469;DHT22;11401;50.792;4.352;2022-08-03T12:34:02;26.10;57.70
22469;DHT22;11401;50.792;4.352;2022-08-03T12:36:31;26.10;57.60
22469;DHT22;11401;50.792;4.352;2022-08-03T12:39:09;26.10;57.70
22469;DHT22;11401;50.792;4.352;2022-08-03T12:41:40;26.10;58.20
22469;DHT22;11401;50.792;4.352;2022-08-03T12:44:08;26.10;57.70
22469;DHT22;11401;50.792;4.352;2022-08-03T12:46:39;26.10;57.80
22469;DHT22;11401;50.792;4.352;2022-08-03T12:49:14;26.10;57.70
22469;DHT22;11401;50.792;4.352;2022-08-03T12:54:22;26.10;57.80
22469;DHT22;11401;50.792;4.352;2022-08-03T12:57:10;26.10;57.80
22469;DHT22;11401;50.792;4.352;2022-08-03T12:59:44;26.10;57.70
22469;DHT22;11401;50.792;4.352;2022-08-03T13:02:24;26.10;57.80
22469;DHT22;11401;50.792;4.352;2022-08-03T13:04:53;26.10;57.90
22469;DHT22;11401;50.792;4.352;2022-08-03T13:07:20;26.10;57.90
22469;DHT22;11401;50.792;4.352;2022-08-03T13:09:51;26.00;57.90
22469;DHT22;11401;50.792;4.352;2022-08-03T13:12:21;26.10;57.90
22469;DHT22;11401;50.792;4.352;2022-08-03T13:14:51;26.10;57.80
22469;DHT22;11401;50.792;4.352;2022-08-03T13:17:18;26.10;58.00
22469;DHT22;11401;50.792;4.352;2022-08-03T13:19:47;26.10;57.80
22469;DHT22;11401;50.792;4.352;2022-08-03T13:22:16;26.10;57.70
22469;DHT22;11401;50.792;4.352;2022-08-03T13:24:45;26.10;57.80
22469;DHT22;11401;50.792;4.352;2022-08-03T13:27:13;26.10;57.80
22469;DHT22;11401;50.792;4.352;2022-08-03T13:30:00;26.10;57.80
22469;DHT22;11401;50.792;4.352;2022-08-03T13:32:26;26.10;57.90
22469;DHT22;11401;50.792;4.352;2022-08-03T13:34:53;26.10;57.90
22469;DHT22;11401;50.792;4.352;2022-08-03T13:37:20;26.10;57.90
22469;DHT22;11401;50.792;4.352;2022-08-03T13:39:48;26.00;57.80
22469;DHT22;11401;50.792;4.352;2022-08-03T13:42:29;26.00;57.90
22469;DHT22;11401;50.792;4.352;2022-08-03T13:44:56;26.10;57.80
22469;DHT22;11401;50.792;4.352;2022-08-03T13:47:23;26.10;57.70
22469;DHT22;11401;50.792;4.352;2022-08-03T13:49:50;26.10;58.00
22469;DHT22;11401;50.792;4.352;2022-08-03T13:52:29;26.10;57.80
22469;DHT22;11401;50.792;4.352;2022-08-03T13:54:56;26.10;58.50
22469;DHT22;11401;50.792;4.352;2022-08-03T13:57:24;26.00;58.20
22469;DHT22;11401;50.792;4.352;2022-08-03T14:00:11;26.10;57.90
22469;DHT22;11401;50.792;4.352;2022-08-03T14:02:52;26.10;57.90
22469;DHT22;11401;50.792;4.352;2022-08-03T14:05:28;26.10;58.00
22469;DHT22;11401;50.792;4.352;2022-08-03T14:07:58;26.10;57.80
22469;DHT22;11401;50.792;4.352;2022-08-03T14:10:33;26.10;57.80
22469;DHT22;11401;50.792;4.352;2022-08-03T14:13:01;26.10;57.70
22469;DHT22;11401;50.792;4.352;2022-08-03T14:15:28;26.10;57.70
22469;DHT22;11401;50.792;4.352;2022-08-03T14:17:55;26.10;57.70
22469;DHT22;11401;50.792;4.352;2022-08-03T14:20:25;26.10;57.80
22469;DHT22;11401;50.792;4.352;2022-08-03T14:23:12;26.10;57.90
22469;DHT22;11401;50.792;4.352;2022-08-03T14:25:40;26.10;57.70
22469;DHT22;11401;50.792;4.352;2022-08-03T14:28:21;26.20;57.70
22469;DHT22;11401;50.792;4.352;2022-08-03T14:30:52;26.10;57.70
22469;DHT22;11401;50.792;4.352;2022-08-03T14:33:20;26.10;57.80
22469;DHT22;11401;50.792;4.352;2022-08-03T14:35:48;26.10;57.90
22469;DHT22;11401;50.792;4.352;2022-08-03T14:38:15;26.10;57.80
22469;DHT22;11401;50.792;4.352;2022-08-03T14:40:43;26.10;57.90
22469;DHT22;11401;50.792;4.352;2022-08-03T14:43:11;26.10;57.90
22469;DHT22;11401;50.792;4.352;2022-08-03T14:45:38;26.10;57.90
22469;DHT22;11401;50.792;4.352;2022-08-03T14:48:06;26.10;57.90
22469;DHT22;11401;50.792;4.352;2022-08-03T14:50:53;26.10;57.80
22469;DHT22;11401;50.792;4.352;2022-08-03T14:53:21;26.00;57.90
22469;DHT22;11401;50.792;4.352;2022-08-03T14:55:48;26.10;58.00
22469;DHT22;11401;50.792;4.352;2022-08-03T14:58:21;26.10;57.80
22469;DHT22;11401;50.792;4.352;2022-08-03T15:00:52;26.10;57.90
22469;DHT22;11401;50.792;4.352;2022-08-03T15:03:22;26.10;58.00
22469;DHT22;11401;50.792;4.352;2022-08-03T15:05:55;26.10;58.00
22469;DHT22;11401;50.792;4.352;2022-08-03T15:08:24;26.10;58.00
22469;DHT22;11401;50.792;4.352;2022-08-03T15:10:52;26.00;58.00
22469;DHT22;11401;50.792;4.352;2022-08-03T15:13:20;26.10;58.10
22469;DHT22;11401;50.792;4.352;2022-08-03T15:15:47;26.10;58.10
22469;DHT22;11401;50.792;4.352;2022-08-03T15:18:15;26.00;58.10
22469;DHT22;11401;50.792;4.352;2022-08-03T15:20:42;26.10;58.10
22469;DHT22;11401;50.792;4.352;2022-08-03T15:23:13;26.10;57.90
22469;DHT22;11401;50.792;4.352;2022-08-03T15:25:42;26.10;58.00
22469;DHT22;11401;50.792;4.352;2022-08-03T15:28:29;26.10;58.10
22469;DHT22;11401;50.792;4.352;2022-08-03T15:30:56;26.10;58.70
22469;DHT22;11401;50.792;4.352;2022-08-03T15:33:23;26.10;58.00
22469;DHT22;11401;50.792;4.352;2022-08-03T15:35:50;26.00;58.10
22469;DHT22;11401;50.792;4.352;2022-08-03T15:38:18;26.10;58.80
22469;DHT22;11401;50.792;4.352;2022-08-03T15:40:51;26.10;58.10
22469;DHT22;11401;50.792;4.352;2022-08-03T15:43:24;26.10;58.10
22469;DHT22;11401;50.792;4.352;2022-08-03T15:45:51;26.10;57.90
22469;DHT22;11401;50.792;4.352;2022-08-03T15:48:41;26.10;58.10
22469;DHT22;11401;50.792;4.352;2022-08-03T15:51:08;26.10;58.10
22469;DHT22;11401;50.792;4.352;2022-08-03T15:53:35;26.10;58.00
22469;DHT22;11401;50.792;4.352;2022-08-03T15:56:04;26.10;58.00
22469;DHT22;11401;50.792;4.352;2022-08-03T15:58:38;26.10;58.00
22469;DHT22;11401;50.792;4.352;2022-08-03T16:01:26;26.10;58.00
22469;DHT22;11401;50.792;4.352;2022-08-03T16:03:53;26.10;58.20
22469;DHT22;11401;50.792;4.352;2022-08-03T16:06:20;26.10;58.10
22469;DHT22;11401;50.792;4.352;2022-08-03T16:09:02;26.10;58.10
22469;DHT22;11401;50.792;4.352;2022-08-03T16:11:29;26.10;58.10
22469;DHT22;11401;50.792;4.352;2022-08-03T16:13:56;26.10;58.10
22469;DHT22;11401;50.792;4.352;2022-08-03T16:16:43;26.10;58.20
22469;DHT22;11401;50.792;4.352;2022-08-03T16:19:12;26.00;58.20
22469;DHT22;11401;50.792;4.352;2022-08-03T16:21:39;26.10;58.30
22469;DHT22;11401;50.792;4.352;2022-08-03T16:24:14;26.10;58.20
22469;DHT22;11401;50.792;4.352;2022-08-03T16:26:45;26.00;58.20
22469;DHT22;11401;50.792;4.352;2022-08-03T16:29:12;26.10;58.40
22469;DHT22;11401;50.792;4.352;2022-08-03T16:31:49;26.00;58.50
22469;DHT22;11401;50.792;4.352;2022-08-03T16:34:18;26.10;58.70
22469;DHT22;11401;50.792;4.352;2022-08-03T16:36:45;26.10;58.70